createdAt,value
2023-11-19T00:00:54.199Z,101843.31
2023-11-19T00:03:34.897Z,101836.34
2023-11-19T00:06:05.943Z,101825.84
2023-11-19T00:08:33.281Z,101819.75
2023-11-19T00:11:00.453Z,101805.84
2023-11-19T00:13:32.098Z,101790.09
2023-11-19T00:15:59.140Z,101787.47
2023-11-19T00:18:29.919Z,101784.81
2023-11-19T00:20:57.554Z,101790.84
2023-11-19T00:23:24.613Z,101780.38
2023-11-19T00:25:51.937Z,101787.34
2023-11-19T00:28:19.061Z,101797.78
2023-11-19T00:30:47.429Z,101791.69
2023-11-19T00:33:14.469Z,101791.66
2023-11-19T00:35:41.491Z,101801.22
2023-11-19T00:38:08.512Z,101803.06
2023-11-19T00:40:39.763Z,101810.03
2023-11-19T00:43:06.902Z,101809.16
2023-11-19T00:45:33.961Z,101805.66
2023-11-19T00:48:01.104Z,101811.69
2023-11-19T00:50:28.242Z,101786.41
2023-11-19T00:53:00.709Z,101777.72
2023-11-19T00:55:27.983Z,101791.75
2023-11-19T00:57:55.181Z,101789.06
2023-11-19T01:00:25.829Z,101794.34
2023-11-19T01:02:53.119Z,101800.38
2023-11-19T01:05:23.933Z,101798.66
2023-11-19T01:07:51.572Z,101802.06
2023-11-19T01:10:20.325Z,101808.25
2023-11-19T01:12:48.209Z,101831.72
2023-11-19T01:15:16.399Z,101830.03
2023-11-19T01:20:18.682Z,101819.59
2023-11-19T01:22:46.320Z,101803.00
2023-11-19T01:25:13.524Z,101804.81
2023-11-19T01:27:40.596Z,101796.94
2023-11-19T01:30:10.985Z,101801.31
2023-11-19T01:32:38.184Z,101804.81
2023-11-19T01:35:05.902Z,101797.78
2023-11-19T01:37:33.650Z,101788.09
2023-11-19T01:40:00.926Z,101793.44
2023-11-19T01:42:31.178Z,101788.19
2023-11-19T01:45:06.209Z,101788.22
2023-11-19T01:47:36.200Z,101788.22
2023-11-19T01:50:08.001Z,101793.38
2023-11-19T01:52:42.814Z,101781.22
2023-11-19T01:55:12.400Z,101771.66
2023-11-19T01:57:42.376Z,101787.38
2023-11-19T02:00:13.494Z,101783.84
2023-11-19T02:02:49.699Z,101782.13
2023-11-19T02:05:18.010Z,101775.13
2023-11-19T02:07:45.397Z,101769.91
2023-11-19T02:10:15.929Z,101768.19
2023-11-19T02:12:44.647Z,101768.91
2023-11-19T02:15:13.547Z,101766.19
2023-11-19T02:17:40.697Z,101747.91
2023-11-19T02:20:10.625Z,101751.41
2023-11-19T02:22:45.228Z,101754.84
2023-11-19T02:25:25.651Z,101747.00
2023-11-19T02:28:04.483Z,101751.44
2023-11-19T02:30:31.524Z,101733.97
2023-11-19T02:33:02.806Z,101739.19
2023-11-19T02:35:36.727Z,101740.94
2023-11-19T02:38:05.594Z,101729.59
2023-11-19T02:40:39.686Z,101725.25
2023-11-19T02:43:07.020Z,101714.78
2023-11-19T02:45:38.041Z,101716.47
2023-11-19T02:48:08.298Z,101716.47
2023-11-19T02:50:35.294Z,101719.97
2023-11-19T02:53:02.579Z,101709.50
2023-11-19T02:55:36.829Z,101700.75
2023-11-19T02:58:09.393Z,101705.13
2023-11-19T03:00:47.452Z,101698.09
2023-11-19T03:03:22.217Z,101692.91
2023-11-19T03:05:49.797Z,101697.28
2023-11-19T03:10:52.640Z,101694.66
2023-11-19T03:13:19.857Z,101701.66
2023-11-19T03:15:49.885Z,101687.69
2023-11-19T03:18:16.898Z,101683.28
2023-11-19T03:20:43.995Z,101682.31
2023-11-19T03:23:11.487Z,101691.13
2023-11-19T03:25:45.149Z,101695.47
2023-11-19T03:28:12.552Z,101681.53
2023-11-19T03:30:39.690Z,101675.47
2023-11-19T03:33:06.824Z,101671.09
2023-11-19T03:35:34.625Z,101665.00
2023-11-19T03:38:02.572Z,101681.56
2023-11-19T03:40:31.142Z,101684.16
2023-11-19T03:43:00.070Z,101674.31
2023-11-19T03:45:27.372Z,101672.53
2023-11-19T03:47:54.269Z,101673.47
2023-11-19T03:50:24.486Z,101670.91
2023-11-19T03:52:51.530Z,101656.94
2023-11-19T03:55:18.817Z,101667.31
2023-11-19T03:57:50.087Z,101665.56
2023-11-19T04:00:22.499Z,101667.34
2023-11-19T04:02:49.689Z,101669.94
2023-11-19T04:05:20.328Z,101656.91
2023-11-19T04:07:48.268Z,101652.56
2023-11-19T04:10:18.036Z,101657.88
2023-11-19T04:12:45.060Z,101660.44
2023-11-19T04:15:13.264Z,101672.56
2023-11-19T04:17:40.266Z,101675.97
2023-11-19T04:20:18.459Z,101679.50
2023-11-19T04:22:48.513Z,101675.22
2023-11-19T04:25:16.711Z,101681.34
2023-11-19T04:27:43.835Z,101675.22
2023-11-19T04:30:12.673Z,101676.06
2023-11-19T04:32:39.787Z,101683.00
2023-11-19T04:35:08.248Z,101676.94
2023-11-19T04:37:40.551Z,101660.41
2023-11-19T04:40:11.379Z,101665.72
2023-11-19T04:42:49.214Z,101660.38
2023-11-19T04:45:21.592Z,101658.63
2023-11-19T04:47:48.731Z,101663.00
2023-11-19T04:50:17.162Z,101660.41
2023-11-19T04:52:46.538Z,101665.56
2023-11-19T04:55:15.727Z,101656.00
2023-11-19T04:57:42.911Z,101651.69
2023-11-19T05:02:43.008Z,101642.97
2023-11-19T05:05:10.801Z,101637.69
2023-11-19T05:07:37.897Z,101639.44
2023-11-19T05:10:08.644Z,101642.94
2023-11-19T05:12:38.455Z,101646.44
2023-11-19T05:15:05.978Z,101635.97
2023-11-19T05:17:33.005Z,101643.78
2023-11-19T05:19:59.959Z,101635.97
2023-11-19T05:22:31.324Z,101630.75
2023-11-19T05:24:58.313Z,101627.31
2023-11-19T05:27:27.747Z,101631.59
2023-11-19T05:30:12.390Z,101621.16
2023-11-19T05:32:39.593Z,101617.59
2023-11-19T05:35:07.433Z,101609.81
2023-11-19T05:37:36.370Z,101610.66
2023-11-19T05:40:06.472Z,101613.28
2023-11-19T05:42:36.461Z,101611.53
2023-11-19T05:45:03.579Z,101607.19
2023-11-19T05:47:31.947Z,101602.03
2023-11-19T05:49:59.473Z,101599.44
2023-11-19T05:52:26.427Z,101589.84
2023-11-19T05:54:54.244Z,101592.44
2023-11-19T05:57:29.551Z,101594.16
2023-11-19T05:59:56.846Z,101597.69
2023-11-19T06:02:23.847Z,101601.19
2023-11-19T06:04:51.187Z,101596.81
2023-11-19T06:07:18.458Z,101590.69
2023-11-19T06:09:46.901Z,101593.31
2023-11-19T06:12:15.496Z,101587.22
2023-11-19T06:14:42.743Z,101591.56
2023-11-19T06:17:12.156Z,101588.94
2023-11-19T06:19:41.766Z,101590.72
2023-11-19T06:22:08.785Z,101587.22
2023-11-19T06:24:37.785Z,101584.59
2023-11-19T06:27:08.436Z,101584.59
2023-11-19T06:29:37.792Z,101586.34
2023-11-19T06:32:14.813Z,101584.59
2023-11-19T06:34:43.521Z,101592.38
2023-11-19T06:37:10.744Z,101595.03
2023-11-19T06:39:41.748Z,101601.19
2023-11-19T06:42:08.801Z,101607.19
2023-11-19T06:44:36.469Z,101612.41
2023-11-19T06:47:03.655Z,101607.19
2023-11-19T06:49:30.660Z,101607.22
2023-11-19T06:51:58.196Z,101604.59
2023-11-19T06:54:25.519Z,101608.03
2023-11-19T06:56:53.860Z,101604.53
2023-11-19T06:59:35.186Z,101612.25
2023-11-19T07:02:02.283Z,101614.97
2023-11-19T07:04:29.437Z,101611.53
2023-11-19T07:06:56.697Z,101615.03
2023-11-19T07:09:24.550Z,101609.88
2023-11-19T07:11:55.171Z,101609.00
2023-11-19T07:14:28.415Z,101618.63
2023-11-19T07:16:57.666Z,101609.91
2023-11-19T07:19:27.923Z,101609.06
2023-11-19T07:21:56.112Z,101613.47
2023-11-19T07:24:24.907Z,101620.47
2023-11-19T07:26:52.481Z,101617.00
2023-11-19T07:31:53.045Z,101617.88
2023-11-19T07:34:21.355Z,101630.09
2023-11-19T07:36:54.602Z,101632.75
2023-11-19T07:39:22.499Z,101632.75
2023-11-19T07:41:49.485Z,101624.00
2023-11-19T07:44:16.531Z,101622.25
2023-11-19T07:46:43.869Z,101624.88
2023-11-19T07:49:11.737Z,101635.38
2023-11-19T07:51:38.636Z,101637.97
2023-11-19T07:54:05.874Z,101639.75
2023-11-19T07:56:36.033Z,101645.00
2023-11-19T07:59:08.517Z,101646.72
2023-11-19T08:01:36.744Z,101652.88
2023-11-19T08:04:09.231Z,101650.22
2023-11-19T08:06:36.754Z,101641.47
2023-11-19T08:09:06.778Z,101645.78
2023-11-19T08:11:35.072Z,101656.25
2023-11-19T08:14:05.522Z,101654.47
2023-11-19T08:16:37.076Z,101655.34
2023-11-19T08:19:04.685Z,101656.19
2023-11-19T08:21:31.600Z,101661.34
2023-11-19T08:24:00.239Z,101649.94
2023-11-19T08:26:27.439Z,101655.13
2023-11-19T08:28:56.986Z,101649.94
2023-11-19T08:31:24.475Z,101651.66
2023-11-19T08:33:51.387Z,101665.56
2023-11-19T08:36:18.782Z,101657.66
2023-11-19T08:38:46.471Z,101655.78
2023-11-19T08:41:17.675Z,101652.25
2023-11-19T08:43:46.106Z,101653.06
2023-11-19T08:46:15.969Z,101649.53
2023-11-19T08:48:42.968Z,101652.97
2023-11-19T08:51:10.025Z,101655.34
2023-11-19T08:53:37.825Z,101658.63
2023-11-19T08:56:05.138Z,101663.06
2023-11-19T08:58:32.579Z,101659.47
2023-11-19T09:01:01.329Z,101659.28
2023-11-19T09:03:29.711Z,101647.84
2023-11-19T09:05:57.148Z,101646.88
2023-11-19T09:08:24.158Z,101645.97
2023-11-19T09:10:50.996Z,101644.13
2023-11-19T09:13:20.361Z,101650.09
2023-11-19T09:15:53.178Z,101645.59
2023-11-19T09:18:20.260Z,101646.38
2023-11-19T09:20:51.675Z,101646.06
2023-11-19T09:23:18.619Z,101650.41
2023-11-19T09:25:53.049Z,101651.25
2023-11-19T09:28:20.055Z,101653.66
2023-11-19T09:30:48.604Z,101650.72
2023-11-19T09:33:23.212Z,101652.59
2023-11-19T09:35:52.331Z,101652.47
2023-11-19T09:38:20.781Z,101648.81
2023-11-19T09:40:52.848Z,101654.63
2023-11-19T09:43:22.240Z,101654.59
2023-11-19T09:45:56.086Z,101652.88
2023-11-19T09:48:34.678Z,101651.94
2023-11-19T09:51:03.225Z,101643.97
2023-11-19T09:53:32.239Z,101639.44
2023-11-19T09:56:04.409Z,101643.63
2023-11-19T09:58:34.463Z,101648.97
2023-11-19T10:03:39.399Z,101638.34
2023-11-19T10:06:15.565Z,101642.88
2023-11-19T10:08:44.722Z,101636.44
2023-11-19T10:11:14.769Z,101631.22
2023-11-19T10:13:46.394Z,101637.44
2023-11-19T10:16:16.758Z,101629.72
2023-11-19T10:18:53.879Z,101623.56
2023-11-19T10:21:20.760Z,101624.75
2023-11-19T10:24:01.728Z,101617.41
2023-11-19T10:26:30.552Z,101622.72
2023-11-19T10:28:58.261Z,101617.44
2023-11-19T10:31:26.716Z,101612.16
2023-11-19T10:33:58.005Z,101601.53
2023-11-19T10:36:39.933Z,101603.16
2023-11-19T10:39:08.095Z,101602.41
2023-11-19T10:41:35.273Z,101605.00
2023-11-19T10:44:04.658Z,101596.22
2023-11-19T10:46:42.306Z,101596.09
2023-11-19T10:49:17.163Z,101594.53
2023-11-19T10:51:47.836Z,101595.41
2023-11-19T10:54:20.120Z,101598.16
2023-11-19T10:57:01.950Z,101593.53
2023-11-19T10:59:39.350Z,101582.22
2023-11-19T11:02:15.967Z,101585.72
2023-11-19T11:04:44.778Z,101572.97
2023-11-19T11:07:11.945Z,101572.22
2023-11-19T11:09:40.369Z,101578.31
2023-11-19T11:12:08.810Z,101574.78
2023-11-19T11:14:39.119Z,101571.13
2023-11-19T11:17:11.648Z,101570.84
2023-11-19T11:19:40.918Z,101561.13
2023-11-19T11:22:09.932Z,101551.56
2023-11-19T11:25:05.106Z,101541.25
2023-11-19T11:28:18.530Z,101550.19
2023-11-19T11:31:03.595Z,101542.78
2023-11-19T11:33:34.087Z,101533.50
2023-11-19T11:36:20.690Z,101535.09
2023-11-19T11:38:56.916Z,101536.72
2023-11-19T11:41:29.795Z,101523.72
2023-11-19T11:43:57.977Z,101520.31
2023-11-19T11:46:38.896Z,101503.50
2023-11-19T11:49:06.903Z,101508.66
2023-11-19T11:51:46.667Z,101502.41
2023-11-19T11:54:19.973Z,101507.41
2023-11-19T11:57:14.532Z,101504.69
2023-11-19T11:59:47.813Z,101503.84
2023-11-19T12:02:18.164Z,101501.97
2023-11-19T12:04:51.560Z,101483.81
2023-11-19T12:07:29.910Z,101491.03
2023-11-19T12:10:21.699Z,101480.47
2023-11-19T12:12:49.371Z,101487.81
2023-11-19T12:15:18.619Z,101501.06
2023-11-19T12:17:53.038Z,101481.47
2023-11-19T12:22:57.246Z,101478.47
2023-11-19T12:25:30.421Z,101471.44
2023-11-19T12:28:10.335Z,101464.97
2023-11-19T12:30:37.820Z,101466.16
2023-11-19T12:33:12.768Z,101464.47
2023-11-19T12:35:54.563Z,101473.19
2023-11-19T12:38:26.637Z,101457.31
2023-11-19T12:41:19.933Z,101459.94
2023-11-19T12:46:30.485Z,101452.75
2023-11-19T12:49:07.792Z,101440.16
2023-11-19T12:51:38.241Z,101439.91
2023-11-19T12:54:09.686Z,101428.47
2023-11-19T12:56:46.702Z,101424.13
2023-11-19T12:59:20.507Z,101421.78
2023-11-19T13:02:07.547Z,101425.28
2023-11-19T13:04:37.576Z,101424.34
2023-11-19T13:07:10.989Z,101428.69
2023-11-19T13:09:39.130Z,101421.75
2023-11-19T13:12:22.172Z,101424.00
2023-11-19T13:14:54.816Z,101421.78
2023-11-19T13:17:22.902Z,101411.91
2023-11-19T13:19:56.332Z,101410.97
2023-11-19T13:22:32.064Z,101405.28
2023-11-19T13:24:59.114Z,101404.47
2023-11-19T13:27:30.018Z,101401.94
2023-11-19T13:29:57.848Z,101402.38
2023-11-19T13:32:29.089Z,101406.78
2023-11-19T13:34:57.316Z,101396.47
2023-11-19T13:37:27.182Z,101399.09
2023-11-19T13:39:56.516Z,101395.53
2023-11-19T13:42:31.444Z,101390.22
2023-11-19T13:44:58.633Z,101387.59
2023-11-19T13:47:25.730Z,101376.34
2023-11-19T13:49:54.188Z,101377.47
2023-11-19T13:52:21.314Z,101379.38
2023-11-19T13:54:48.309Z,101375.25
2023-11-19T13:57:15.247Z,101374.44
2023-11-19T13:59:43.038Z,101373.69
2023-11-19T14:02:10.197Z,101370.19
2023-11-19T14:04:37.768Z,101360.03
2023-11-19T14:07:04.926Z,101357.50
2023-11-19T14:09:39.724Z,101351.41
2023-11-19T14:12:06.775Z,101350.31
2023-11-19T14:14:33.700Z,101355.53
2023-11-19T14:19:31.036Z,101352.03
2023-11-19T14:21:58.933Z,101355.72
2023-11-19T14:24:27.299Z,101355.53
2023-11-19T14:27:02.792Z,101349.63
2023-11-19T14:29:34.571Z,101344.44
2023-11-19T14:32:02.577Z,101348.94
2023-11-19T14:34:33.722Z,101348.78
2023-11-19T14:37:02.637Z,101357.75
2023-11-19T14:39:37.650Z,101356.06
2023-11-19T14:42:10.272Z,101365.50
2023-11-19T14:44:37.745Z,101364.00
2023-11-19T14:47:06.451Z,101370.06
2023-11-19T14:49:34.018Z,101362.09
2023-11-19T14:54:43.015Z,101348.25
2023-11-19T14:57:17.510Z,101357.41
2023-11-19T14:59:45.872Z,101362.16
2023-11-19T15:02:20.568Z,101355.16
2023-11-19T15:04:48.530Z,101352.34
2023-11-19T15:07:15.628Z,101356.38
2023-11-19T15:09:43.063Z,101359.75
2023-11-19T15:12:10.561Z,101352.97
2023-11-19T15:14:37.932Z,101349.88
2023-11-19T15:17:09.471Z,101341.13
2023-11-19T15:19:37.218Z,101343.03
2023-11-19T15:22:14.018Z,101337.59
2023-11-19T15:24:47.020Z,101341.88
2023-11-19T15:27:15.301Z,101336.75
2023-11-19T15:29:45.367Z,101340.25
2023-11-19T15:32:18.951Z,101357.13
2023-11-19T15:34:46.458Z,101355.78
2023-11-19T15:37:26.350Z,101354.00
2023-11-19T15:39:55.774Z,101361.34
2023-11-19T15:42:29.902Z,101360.69
2023-11-19T15:45:08.787Z,101366.13
2023-11-19T15:47:47.789Z,101384.88
2023-11-19T15:50:15.045Z,101380.84
2023-11-19T15:52:42.742Z,101390.81
2023-11-19T15:55:10.056Z,101391.69
2023-11-19T15:57:39.046Z,101400.50
2023-11-19T16:00:12.436Z,101400.50
2023-11-19T16:02:49.908Z,101404.22
2023-11-19T16:05:21.680Z,101407.09
2023-11-19T16:08:02.367Z,101400.00
2023-11-19T16:10:30.867Z,101406.03
2023-11-19T16:13:03.592Z,101395.97
2023-11-19T16:18:04.136Z,101379.16
2023-11-19T16:20:32.800Z,101371.22
2023-11-19T16:23:02.447Z,101373.09
2023-11-19T16:25:29.741Z,101380.31
2023-11-19T16:27:57.465Z,101382.22
2023-11-19T16:30:30.796Z,101396.41
2023-11-19T16:33:02.809Z,101414.22
2023-11-19T16:35:35.936Z,101427.53
2023-11-19T16:38:03.171Z,101433.59
2023-11-19T16:40:30.273Z,101426.22
2023-11-19T16:42:58.201Z,101414.78
2023-11-19T16:45:29.056Z,101397.19
2023-11-19T16:47:59.359Z,101401.84
2023-11-19T16:50:31.434Z,101406.25
2023-11-19T16:52:59.696Z,101411.53
2023-11-19T16:55:27.113Z,101413.28
2023-11-19T16:57:54.319Z,101413.59
2023-11-19T17:03:03.865Z,101412.47
2023-11-19T17:05:35.835Z,101419.63
2023-11-19T17:08:03.816Z,101414.31
2023-11-19T17:10:30.884Z,101412.72
2023-11-19T17:13:02.445Z,101413.53
2023-11-19T17:15:30.049Z,101413.88
2023-11-19T17:17:57.767Z,101416.50
2023-11-19T17:20:28.589Z,101418.28
2023-11-19T17:22:57.328Z,101415.78
2023-11-19T17:25:24.635Z,101420.09
2023-11-19T17:27:52.917Z,101417.53
2023-11-19T17:30:25.297Z,101413.00
2023-11-19T17:32:52.448Z,101406.94
2023-11-19T17:35:20.453Z,101407.75
2023-11-19T17:37:56.068Z,101408.56
2023-11-19T17:40:29.919Z,101421.91
2023-11-19T17:42:57.088Z,101422.03
2023-11-19T17:45:24.242Z,101422.84
2023-11-19T17:47:51.296Z,101430.69
2023-11-19T17:52:50.527Z,101438.69
2023-11-19T17:55:17.581Z,101435.19
2023-11-19T17:57:47.924Z,101432.50
2023-11-19T18:00:16.293Z,101438.75
2023-11-19T18:02:46.298Z,101448.56
2023-11-19T18:05:13.796Z,101456.41
2023-11-19T18:07:44.370Z,101450.13
2023-11-19T18:10:12.435Z,101452.78
2023-11-19T18:12:40.332Z,101448.34
2023-11-19T18:15:08.746Z,101438.00
2023-11-19T18:17:38.964Z,101439.97
2023-11-19T18:20:09.312Z,101432.91
2023-11-19T18:22:37.643Z,101432.78
2023-11-19T18:25:05.916Z,101429.59
2023-11-19T18:27:34.055Z,101427.78
2023-11-19T18:30:01.857Z,101430.31
2023-11-19T18:32:35.106Z,101431.97
2023-11-19T18:35:11.110Z,101437.06
2023-11-19T18:37:41.003Z,101434.63
2023-11-19T18:40:15.204Z,101423.25
2023-11-19T18:42:45.627Z,101417.00
2023-11-19T18:45:22.800Z,101425.94
2023-11-19T18:47:54.849Z,101419.78
2023-11-19T18:50:26.348Z,101427.75
2023-11-19T18:52:54.481Z,101425.13
2023-11-19T18:55:26.067Z,101429.47
2023-11-19T18:57:56.155Z,101429.47
2023-11-19T19:00:27.965Z,101428.66
2023-11-19T19:05:37.662Z,101418.16
2023-11-19T19:08:06.456Z,101415.63
2023-11-19T19:10:34.090Z,101425.31
2023-11-19T19:13:04.141Z,101423.66
2023-11-19T19:15:33.108Z,101425.47
2023-11-19T19:18:00.809Z,101421.03
2023-11-19T19:20:33.938Z,101428.88
2023-11-19T19:23:02.523Z,101426.34
2023-11-19T19:25:31.648Z,101421.88
2023-11-19T19:28:22.685Z,101431.53
2023-11-19T19:30:47.314Z,101426.53
2023-11-19T19:33:17.193Z,101424.78
2023-11-19T19:35:49.637Z,101423.84
2023-11-19T19:38:17.162Z,101416.78
2023-11-19T19:40:45.053Z,101406.31
2023-11-19T19:43:13.800Z,101418.66
2023-11-19T19:45:46.887Z,101419.63
2023-11-19T19:48:17.747Z,101426.41
2023-11-19T19:50:44.934Z,101431.69
2023-11-19T19:53:13.506Z,101438.06
2023-11-19T19:55:45.933Z,101435.28
2023-11-19T19:58:16.812Z,101450.09
2023-11-19T20:00:46.384Z,101459.78
2023-11-19T20:03:15.082Z,101470.41
2023-11-19T20:05:45.662Z,101473.03
2023-11-19T20:08:13.861Z,101478.34
2023-11-19T20:10:43.226Z,101478.34
2023-11-19T20:13:14.629Z,101473.91
2023-11-19T20:15:46.086Z,101469.47
2023-11-19T20:18:15.551Z,101474.81
2023-11-19T20:20:43.978Z,101468.63
2023-11-19T20:23:11.311Z,101466.94
2023-11-19T20:25:40.717Z,101460.00
2023-11-19T20:28:10.668Z,101463.63
2023-11-19T20:30:38.029Z,101471.47
2023-11-19T20:33:05.267Z,101457.38
2023-11-19T20:35:33.761Z,101460.88
2023-11-19T20:38:03.416Z,101457.47
2023-11-19T20:40:30.599Z,101455.78
2023-11-19T20:42:57.833Z,101453.97
2023-11-19T20:45:31.951Z,101444.31
2023-11-19T20:47:59.889Z,101450.50
2023-11-19T20:50:33.215Z,101454.84
2023-11-19T20:53:03.065Z,101459.19
2023-11-19T20:55:33.573Z,101468.06
2023-11-19T20:58:02.911Z,101464.53
2023-11-19T21:00:30.882Z,101459.31
2023-11-19T21:02:59.828Z,101461.91
2023-11-19T21:05:29.740Z,101457.47
2023-11-19T21:07:56.796Z,101472.41
2023-11-19T21:10:23.941Z,101473.31
2023-11-19T21:12:51.551Z,101453.09
2023-11-19T21:15:19.053Z,101448.06
2023-11-19T21:17:49.331Z,101447.19
2023-11-19T21:20:16.507Z,101457.69
2023-11-19T21:22:44.046Z,101454.97
2023-11-19T21:25:13.799Z,101455.81
2023-11-19T21:27:42.786Z,101453.25
2023-11-19T21:30:18.271Z,101450.56
2023-11-19T21:32:45.336Z,101449.72
2023-11-19T21:35:13.763Z,101443.56
2023-11-19T21:37:41.167Z,101448.00
2023-11-19T21:40:09.934Z,101441.81
2023-11-19T21:42:37.876Z,101432.16
2023-11-19T21:45:09.012Z,101431.31
2023-11-19T21:47:36.644Z,101430.59
2023-11-19T21:50:04.444Z,101427.97
2023-11-19T21:52:38.741Z,101414.75
2023-11-19T21:55:11.064Z,101429.59
2023-11-19T21:57:39.457Z,101414.81
2023-11-19T22:00:09.537Z,101408.59
2023-11-19T22:02:37.147Z,101413.09
2023-11-19T22:05:06.111Z,101422.72
2023-11-19T22:07:36.580Z,101424.41
2023-11-19T22:10:07.095Z,101425.28
2023-11-19T22:12:34.354Z,101415.69
2023-11-19T22:15:01.843Z,101413.91
2023-11-19T22:17:29.124Z,101416.53
2023-11-19T22:19:57.286Z,101417.41
2023-11-19T22:22:24.378Z,101409.53
2023-11-19T22:24:55.861Z,101406.91
2023-11-19T22:27:23.017Z,101414.75
2023-11-19T22:29:51.414Z,101409.56
2023-11-19T22:34:51.512Z,101415.72
2023-11-19T22:37:18.609Z,101413.13
2023-11-19T22:39:47.769Z,101406.94
2023-11-19T22:42:15.047Z,101405.19
2023-11-19T22:44:42.156Z,101400.84
2023-11-19T22:47:10.315Z,101399.09
2023-11-19T22:49:38.381Z,101395.66
2023-11-19T22:52:10.462Z,101393.84
2023-11-19T22:54:37.993Z,101386.00
2023-11-19T22:57:05.057Z,101379.06
2023-11-19T22:59:32.715Z,101381.69
2023-11-19T23:02:00.255Z,101380.75
2023-11-19T23:04:27.399Z,101374.66
2023-11-19T23:06:55.317Z,101369.44
2023-11-19T23:09:25.586Z,101380.78
2023-11-19T23:11:56.626Z,101370.31
2023-11-19T23:14:24.913Z,101372.03
2023-11-19T23:16:52.170Z,101369.31
2023-11-19T23:19:21.609Z,101362.31
2023-11-19T23:21:52.183Z,101360.66
2023-11-19T23:24:19.248Z,101365.06
2023-11-19T23:26:49.226Z,101358.06
2023-11-19T23:29:37.688Z,101354.50
2023-11-19T23:32:06.331Z,101358.06
2023-11-19T23:37:05.102Z,101347.66
2023-11-19T23:39:34.686Z,101334.47
2023-11-19T23:42:04.934Z,101339.75
2023-11-19T23:44:31.867Z,101334.53
2023-11-19T23:46:58.994Z,101332.75
2023-11-19T23:49:29.130Z,101330.97
2023-11-19T23:51:56.253Z,101330.13
2023-11-19T23:54:23.334Z,101335.44
2023-11-19T23:56:53.298Z,101330.06
2023-11-19T23:59:24.968Z,101332.81
